sensor_id;sensor_type;location;lat;lon;timestamp;temperature;humidity
81315;DHT22;72214;52.510;5.718;2023-12-04T00:00:09;1.10;79.40
81315;DHT22;72214;52.510;5.718;2023-12-04T00:02:38;1.10;79.50
81315;DHT22;72214;52.510;5.718;2023-12-04T00:05:08;1.10;79.50
81315;DHT22;72214;52.510;5.718;2023-12-04T00:07:37;1.00;79.50
81315;DHT22;72214;52.510;5.718;2023-12-04T00:10:09;1.10;79.50
81315;DHT22;72214;52.510;5.718;2023-12-04T00:12:38;1.10;79.50
81315;DHT22;72214;52.510;5.718;2023-12-04T00:15:09;1.10;79.50
81315;DHT22;72214;52.510;5.718;2023-12-04T00:17:38;1.10;79.50
81315;DHT22;72214;52.510;5.718;2023-12-04T00:20:09;1.10;79.50
81315;DHT22;72214;52.510;5.718;2023-12-04T00:22:38;1.10;79.50
81315;DHT22;72214;52.510;5.718;2023-12-04T00:25:10;1.10;79.50
81315;DHT22;72214;52.510;5.718;2023-12-04T00:27:39;1.10;79.50
81315;DHT22;72214;52.510;5.718;2023-12-04T00:30:09;1.10;79.60
81315;DHT22;72214;52.510;5.718;2023-12-04T00:32:38;1.10;79.50
81315;DHT22;72214;52.510;5.718;2023-12-04T00:35:08;1.10;79.50
81315;DHT22;72214;52.510;5.718;2023-12-04T00:37:37;1.10;79.60
81315;DHT22;72214;52.510;5.718;2023-12-04T00:40:10;1.10;79.60
81315;DHT22;72214;52.510;5.718;2023-12-04T00:42:39;1.10;79.60
81315;DHT22;72214;52.510;5.718;2023-12-04T00:45:09;1.10;79.60
81315;DHT22;72214;52.510;5.718;2023-12-04T00:47:38;1.10;79.60
81315;DHT22;72214;52.510;5.718;2023-12-04T00:50:08;1.10;79.60
81315;DHT22;72214;52.510;5.718;2023-12-04T00:52:37;1.10;79.70
81315;DHT22;72214;52.510;5.718;2023-12-04T00:55:07;1.10;79.70
81315;DHT22;72214;52.510;5.718;2023-12-04T00:57:38;1.10;79.60
81315;DHT22;72214;52.510;5.718;2023-12-04T01:00:09;1.10;79.70
81315;DHT22;72214;52.510;5.718;2023-12-04T01:02:38;1.10;79.70
81315;DHT22;72214;52.510;5.718;2023-12-04T01:05:07;1.10;79.70
81315;DHT22;72214;52.510;5.718;2023-12-04T01:07:37;1.10;79.70
81315;DHT22;72214;52.510;5.718;2023-12-04T01:10:07;1.10;79.60
81315;DHT22;72214;52.510;5.718;2023-12-04T01:12:39;1.10;79.70
81315;DHT22;72214;52.510;5.718;2023-12-04T01:15:08;1.10;79.60
81315;DHT22;72214;52.510;5.718;2023-12-04T01:17:38;1.20;79.70
81315;DHT22;72214;52.510;5.718;2023-12-04T01:20:08;1.10;79.70
81315;DHT22;72214;52.510;5.718;2023-12-04T01:22:37;1.10;79.70
81315;DHT22;72214;52.510;5.718;2023-12-04T01:25:08;1.10;79.70
81315;DHT22;72214;52.510;5.718;2023-12-04T01:27:40;1.10;79.70
81315;DHT22;72214;52.510;5.718;2023-12-04T01:30:11;1.10;79.70
81315;DHT22;72214;52.510;5.718;2023-12-04T01:32:40;1.10;79.70
81315;DHT22;72214;52.510;5.718;2023-12-04T01:35:09;1.10;79.70
81315;DHT22;72214;52.510;5.718;2023-12-04T01:37:38;1.10;79.70
81315;DHT22;72214;52.510;5.718;2023-12-04T01:40:08;1.10;79.70
81315;DHT22;72214;52.510;5.718;2023-12-04T01:42:42;1.10;79.70
81315;DHT22;72214;52.510;5.718;2023-12-04T01:45:11;1.10;79.70
81315;DHT22;72214;52.510;5.718;2023-12-04T01:47:40;1.10;79.70
81315;DHT22;72214;52.510;5.718;2023-12-04T01:50:10;1.10;79.70
81315;DHT22;72214;52.510;5.718;2023-12-04T01:52:40;1.10;79.80
81315;DHT22;72214;52.510;5.718;2023-12-04T01:55:10;1.10;79.70
81315;DHT22;72214;52.510;5.718;2023-12-04T01:57:42;1.10;79.80
81315;DHT22;72214;52.510;5.718;2023-12-04T02:00:12;1.20;79.70
81315;DHT22;72214;52.510;5.718;2023-12-04T02:02:42;1.20;79.70
81315;DHT22;72214;52.510;5.718;2023-12-04T02:05:11;1.20;79.80
81315;DHT22;72214;52.510;5.718;2023-12-04T02:07:41;1.20;79.80
81315;DHT22;72214;52.510;5.718;2023-12-04T02:10:10;1.20;79.80
81315;DHT22;72214;52.510;5.718;2023-12-04T02:12:42;1.20;79.70
81315;DHT22;72214;52.510;5.718;2023-12-04T02:15:12;1.20;79.70
81315;DHT22;72214;52.510;5.718;2023-12-04T02:17:43;1.20;79.70
81315;DHT22;72214;52.510;5.718;2023-12-04T02:20:13;1.20;79.70
81315;DHT22;72214;52.510;5.718;2023-12-04T02:22:42;1.20;79.80
81315;DHT22;72214;52.510;5.718;2023-12-04T02:25:14;1.20;79.80
81315;DHT22;72214;52.510;5.718;2023-12-04T02:27:49;1.20;79.80
81315;DHT22;72214;52.510;5.718;2023-12-04T02:30:22;1.20;79.80
81315;DHT22;72214;52.510;5.718;2023-12-04T02:32:53;1.20;79.80
81315;DHT22;72214;52.510;5.718;2023-12-04T02:35:26;1.20;79.80
81315;DHT22;72214;52.510;5.718;2023-12-04T02:37:58;1.20;79.90
81315;DHT22;72214;52.510;5.718;2023-12-04T02:40:30;1.20;79.90
81315;DHT22;72214;52.510;5.718;2023-12-04T02:42:59;1.20;79.80
81315;DHT22;72214;52.510;5.718;2023-12-04T02:45:28;1.20;79.80
81315;DHT22;72214;52.510;5.718;2023-12-04T02:47:57;1.20;79.80
81315;DHT22;72214;52.510;5.718;2023-12-04T02:50:27;1.20;79.80
81315;DHT22;72214;52.510;5.718;2023-12-04T02:52:56;1.20;79.80
81315;DHT22;72214;52.510;5.718;2023-12-04T02:55:25;1.20;79.80
81315;DHT22;72214;52.510;5.718;2023-12-04T02:57:57;1.20;79.80
81315;DHT22;72214;52.510;5.718;2023-12-04T03:00:26;1.20;79.80
81315;DHT22;72214;52.510;5.718;2023-12-04T03:02:55;1.20;79.80
81315;DHT22;72214;52.510;5.718;2023-12-04T03:05:24;1.20;79.80
81315;DHT22;72214;52.510;5.718;2023-12-04T03:07:53;1.20;79.80
81315;DHT22;72214;52.510;5.718;2023-12-04T03:10:22;1.10;79.70
81315;DHT22;72214;52.510;5.718;2023-12-04T03:12:51;1.10;79.80
81315;DHT22;72214;52.510;5.718;2023-12-04T03:15:23;1.10;79.90
81315;DHT22;72214;52.510;5.718;2023-12-04T03:17:54;1.10;79.90
81315;DHT22;72214;52.510;5.718;2023-12-04T03:20:23;1.10;79.90
81315;DHT22;72214;52.510;5.718;2023-12-04T03:22:53;1.10;79.80
81315;DHT22;72214;52.510;5.718;2023-12-04T03:25:22;1.10;79.80
81315;DHT22;72214;52.510;5.718;2023-12-04T03:27:51;1.10;79.80
81315;DHT22;72214;52.510;5.718;2023-12-04T03:30:23;1.00;79.80
81315;DHT22;72214;52.510;5.718;2023-12-04T03:32:52;1.00;79.90
81315;DHT22;72214;52.510;5.718;2023-12-04T03:35:21;1.10;79.90
81315;DHT22;72214;52.510;5.718;2023-12-04T03:37:50;1.00;79.80
81315;DHT22;72214;52.510;5.718;2023-12-04T03:40:19;1.10;79.80
81315;DHT22;72214;52.510;5.718;2023-12-04T03:42:48;1.10;79.80
81315;DHT22;72214;52.510;5.718;2023-12-04T03:45:17;1.00;79.70
81315;DHT22;72214;52.510;5.718;2023-12-04T03:47:49;1.00;79.80
81315;DHT22;72214;52.510;5.718;2023-12-04T03:50:18;1.10;79.70
81315;DHT22;72214;52.510;5.718;2023-12-04T03:52:47;1.10;79.70
81315;DHT22;72214;52.510;5.718;2023-12-04T03:55:16;1.10;79.70
81315;DHT22;72214;52.510;5.718;2023-12-04T03:57:46;1.10;79.70
81315;DHT22;72214;52.510;5.718;2023-12-04T04:00:15;1.10;79.70
81315;DHT22;72214;52.510;5.718;2023-12-04T04:02:45;1.10;79.70
81315;DHT22;72214;52.510;5.718;2023-12-04T04:05:16;1.10;79.70
81315;DHT22;72214;52.510;5.718;2023-12-04T04:07:45;1.10;79.60
81315;DHT22;72214;52.510;5.718;2023-12-04T04:10:15;1.10;79.60
81315;DHT22;72214;52.510;5.718;2023-12-04T04:12:44;1.10;79.70
81315;DHT22;72214;52.510;5.718;2023-12-04T04:15:13;1.10;79.70
81315;DHT22;72214;52.510;5.718;2023-12-04T04:17:42;1.10;79.70
81315;DHT22;72214;52.510;5.718;2023-12-04T04:20:11;1.10;79.60
81315;DHT22;72214;52.510;5.718;2023-12-04T04:22:43;1.10;79.70
81315;DHT22;72214;52.510;5.718;2023-12-04T04:25:13;1.10;79.70
81315;DHT22;72214;52.510;5.718;2023-12-04T04:27:42;1.00;79.70
81315;DHT22;72214;52.510;5.718;2023-12-04T04:30:12;1.00;79.60
81315;DHT22;72214;52.510;5.718;2023-12-04T04:32:42;1.00;79.70
81315;DHT22;72214;52.510;5.718;2023-12-04T04:35:11;1.00;79.70
81315;DHT22;72214;52.510;5.718;2023-12-04T04:37:43;1.00;79.70
81315;DHT22;72214;52.510;5.718;2023-12-04T04:40:12;1.00;79.70
81315;DHT22;72214;52.510;5.718;2023-12-04T04:42:41;1.00;79.70
81315;DHT22;72214;52.510;5.718;2023-12-04T04:45:11;1.00;79.60
81315;DHT22;72214;52.510;5.718;2023-12-04T04:47:40;1.00;79.60
81315;DHT22;72214;52.510;5.718;2023-12-04T04:50:09;1.00;79.70
81315;DHT22;72214;52.510;5.718;2023-12-04T04:52:38;1.00;79.60
81315;DHT22;72214;52.510;5.718;2023-12-04T04:55:10;1.00;79.60
81315;DHT22;72214;52.510;5.718;2023-12-04T04:57:39;1.00;79.70
81315;DHT22;72214;52.510;5.718;2023-12-04T05:00:11;1.00;79.60
81315;DHT22;72214;52.510;5.718;2023-12-04T05:02:42;1.00;79.60
81315;DHT22;72214;52.510;5.718;2023-12-04T05:05:11;1.00;79.60
81315;DHT22;72214;52.510;5.718;2023-12-04T05:07:40;1.00;79.70
81315;DHT22;72214;52.510;5.718;2023-12-04T05:10:12;1.00;79.70
81315;DHT22;72214;52.510;5.718;2023-12-04T05:12:41;1.00;79.60
81315;DHT22;72214;52.510;5.718;2023-12-04T05:15:10;1.00;79.60
81315;DHT22;72214;52.510;5.718;2023-12-04T05:17:40;1.00;79.60
81315;DHT22;72214;52.510;5.718;2023-12-04T05:20:10;1.00;79.60
81315;DHT22;72214;52.510;5.718;2023-12-04T05:22:39;1.00;79.60
81315;DHT22;72214;52.510;5.718;2023-12-04T05:25:09;1.00;79.60
81315;DHT22;72214;52.510;5.718;2023-12-04T05:27:40;1.00;79.60
81315;DHT22;72214;52.510;5.718;2023-12-04T05:30:10;1.00;79.60
81315;DHT22;72214;52.510;5.718;2023-12-04T05:32:39;1.00;79.60
81315;DHT22;72214;52.510;5.718;2023-12-04T05:35:08;1.00;79.50
81315;DHT22;72214;52.510;5.718;2023-12-04T05:37:38;1.00;79.50
81315;DHT22;72214;52.510;5.718;2023-12-04T05:40:08;1.00;79.50
81315;DHT22;72214;52.510;5.718;2023-12-04T05:42:40;1.00;79.50
81315;DHT22;72214;52.510;5.718;2023-12-04T05:45:09;1.00;79.50
81315;DHT22;72214;52.510;5.718;2023-12-04T05:47:38;1.00;79.50
81315;DHT22;72214;52.510;5.718;2023-12-04T05:50:08;1.00;79.50
81315;DHT22;72214;52.510;5.718;2023-12-04T05:52:37;1.00;79.50
81315;DHT22;72214;52.510;5.718;2023-12-04T05:55:08;1.00;79.50
81315;DHT22;72214;52.510;5.718;2023-12-04T05:57:41;1.00;79.50
81315;DHT22;72214;52.510;5.718;2023-12-04T06:00:11;1.00;79.50
81315;DHT22;72214;52.510;5.718;2023-12-04T06:02:41;1.00;79.60
81315;DHT22;72214;52.510;5.718;2023-12-04T06:05:11;1.00;79.50
81315;DHT22;72214;52.510;5.718;2023-12-04T06:07:40;1.00;79.50
81315;DHT22;72214;52.510;5.718;2023-12-04T06:10:10;1.00;79.50
81315;DHT22;72214;52.510;5.718;2023-12-04T06:12:41;1.00;79.50
81315;DHT22;72214;52.510;5.718;2023-12-04T06:15:10;1.00;79.40
81315;DHT22;72214;52.510;5.718;2023-12-04T06:17:40;1.00;79.50
81315;DHT22;72214;52.510;5.718;2023-12-04T06:20:10;1.00;79.50
81315;DHT22;72214;52.510;5.718;2023-12-04T06:22:40;1.00;79.50
81315;DHT22;72214;52.510;5.718;2023-12-04T06:25:11;1.00;79.40
81315;DHT22;72214;52.510;5.718;2023-12-04T06:27:43;1.00;79.40
81315;DHT22;72214;52.510;5.718;2023-12-04T06:30:14;1.00;79.40
81315;DHT22;72214;52.510;5.718;2023-12-04T06:32:44;1.00;79.50
81315;DHT22;72214;52.510;5.718;2023-12-04T06:35:14;1.00;79.40
81315;DHT22;72214;52.510;5.718;2023-12-04T06:37:45;1.00;79.40
81315;DHT22;72214;52.510;5.718;2023-12-04T06:40:16;1.00;79.40
81315;DHT22;72214;52.510;5.718;2023-12-04T06:42:49;1.00;79.40
81315;DHT22;72214;52.510;5.718;2023-12-04T06:45:19;1.00;79.40
81315;DHT22;72214;52.510;5.718;2023-12-04T06:47:50;1.00;79.40
81315;DHT22;72214;52.510;5.718;2023-12-04T06:50:20;1.00;79.40
81315;DHT22;72214;52.510;5.718;2023-12-04T06:52:49;1.00;79.30
81315;DHT22;72214;52.510;5.718;2023-12-04T06:55:18;0.90;79.30
81315;DHT22;72214;52.510;5.718;2023-12-04T06:57:50;1.00;79.30
81315;DHT22;72214;52.510;5.718;2023-12-04T07:00:20;1.00;79.20
81315;DHT22;72214;52.510;5.718;2023-12-04T07:02:49;1.00;79.30
81315;DHT22;72214;52.510;5.718;2023-12-04T07:05:19;1.00;79.30
81315;DHT22;72214;52.510;5.718;2023-12-04T07:07:49;1.00;79.30
81315;DHT22;72214;52.510;5.718;2023-12-04T07:10:18;1.00;79.20
81315;DHT22;72214;52.510;5.718;2023-12-04T07:12:50;1.00;79.20
81315;DHT22;72214;52.510;5.718;2023-12-04T07:15:19;1.00;79.20
81315;DHT22;72214;52.510;5.718;2023-12-04T07:17:48;1.00;79.10
81315;DHT22;72214;52.510;5.718;2023-12-04T07:20:17;1.00;79.10
81315;DHT22;72214;52.510;5.718;2023-12-04T07:22:48;1.00;79.20
81315;DHT22;72214;52.510;5.718;2023-12-04T07:25:17;1.00;79.10
81315;DHT22;72214;52.510;5.718;2023-12-04T07:27:46;1.00;79.10
81315;DHT22;72214;52.510;5.718;2023-12-04T07:30:18;1.00;79.10
81315;DHT22;72214;52.510;5.718;2023-12-04T07:32:47;1.00;79.00
81315;DHT22;72214;52.510;5.718;2023-12-04T07:35:17;1.00;79.10
81315;DHT22;72214;52.510;5.718;2023-12-04T07:37:47;1.00;79.00
81315;DHT22;72214;52.510;5.718;2023-12-04T07:40:16;1.00;79.00
81315;DHT22;72214;52.510;5.718;2023-12-04T07:42:47;1.00;79.00
81315;DHT22;72214;52.510;5.718;2023-12-04T07:45:19;1.00;79.00
81315;DHT22;72214;52.510;5.718;2023-12-04T07:47:48;1.00;79.00
81315;DHT22;72214;52.510;5.718;2023-12-04T07:50:17;1.00;79.00
81315;DHT22;72214;52.510;5.718;2023-12-04T07:52:46;1.00;79.00
81315;DHT22;72214;52.510;5.718;2023-12-04T07:55:15;1.00;79.00
81315;DHT22;72214;52.510;5.718;2023-12-04T07:57:44;1.00;79.00
81315;DHT22;72214;52.510;5.718;2023-12-04T08:00:15;1.00;79.00
81315;DHT22;72214;52.510;5.718;2023-12-04T08:02:46;1.00;78.90
81315;DHT22;72214;52.510;5.718;2023-12-04T08:05:16;1.00;78.90
81315;DHT22;72214;52.510;5.718;2023-12-04T08:07:45;1.00;78.90
81315;DHT22;72214;52.510;5.718;2023-12-04T08:10:14;1.00;78.90
81315;DHT22;72214;52.510;5.718;2023-12-04T08:12:44;1.10;78.80
81315;DHT22;72214;52.510;5.718;2023-12-04T08:15:14;1.10;78.70
81315;DHT22;72214;52.510;5.718;2023-12-04T08:17:46;1.10;78.70
81315;DHT22;72214;52.510;5.718;2023-12-04T08:20:15;1.10;78.70
81315;DHT22;72214;52.510;5.718;2023-12-04T08:22:48;1.10;78.70
81315;DHT22;72214;52.510;5.718;2023-12-04T08:25:17;1.20;78.70
81315;DHT22;72214;52.510;5.718;2023-12-04T08:27:46;1.20;78.60
81315;DHT22;72214;52.510;5.718;2023-12-04T08:30:15;1.20;78.60
81315;DHT22;72214;52.510;5.718;2023-12-04T08:32:47;1.20;78.50
81315;DHT22;72214;52.510;5.718;2023-12-04T08:35:16;1.30;78.50
81315;DHT22;72214;52.510;5.718;2023-12-04T08:37:46;1.30;78.50
81315;DHT22;72214;52.510;5.718;2023-12-04T08:40:15;1.40;78.50
81315;DHT22;72214;52.510;5.718;2023-12-04T08:42:44;1.40;78.50
81315;DHT22;72214;52.510;5.718;2023-12-04T08:45:13;1.40;78.40
81315;DHT22;72214;52.510;5.718;2023-12-04T08:47:47;1.40;78.40
81315;DHT22;72214;52.510;5.718;2023-12-04T08:50:16;1.40;78.40
81315;DHT22;72214;52.510;5.718;2023-12-04T08:52:45;1.40;78.40
81315;DHT22;72214;52.510;5.718;2023-12-04T08:55:14;1.40;78.50
81315;DHT22;72214;52.510;5.718;2023-12-04T08:57:43;1.50;78.40
81315;DHT22;72214;52.510;5.718;2023-12-04T09:00:14;1.50;78.30
81315;DHT22;72214;52.510;5.718;2023-12-04T09:02:46;1.50;78.30
81315;DHT22;72214;52.510;5.718;2023-12-04T09:05:16;1.50;78.30
81315;DHT22;72214;52.510;5.718;2023-12-04T09:07:45;1.50;78.20
81315;DHT22;72214;52.510;5.718;2023-12-04T09:10:14;1.50;78.30
81315;DHT22;72214;52.510;5.718;2023-12-04T09:12:43;1.60;78.20
81315;DHT22;72214;52.510;5.718;2023-12-04T09:15:13;1.60;78.20
81315;DHT22;72214;52.510;5.718;2023-12-04T09:17:42;1.60;78.20
81315;DHT22;72214;52.510;5.718;2023-12-04T09:20:14;1.60;78.10
81315;DHT22;72214;52.510;5.718;2023-12-04T09:22:43;1.60;78.10
81315;DHT22;72214;52.510;5.718;2023-12-04T09:25:12;1.70;78.10
81315;DHT22;72214;52.510;5.718;2023-12-04T09:27:41;1.70;78.10
81315;DHT22;72214;52.510;5.718;2023-12-04T09:30:11;1.60;78.00
81315;DHT22;72214;52.510;5.718;2023-12-04T09:32:40;1.60;78.10
81315;DHT22;72214;52.510;5.718;2023-12-04T09:35:10;1.70;78.10
81315;DHT22;72214;52.510;5.718;2023-12-04T09:37:41;1.60;78.10
81315;DHT22;72214;52.510;5.718;2023-12-04T09:40:12;1.60;78.10
81315;DHT22;72214;52.510;5.718;2023-12-04T09:42:42;1.60;78.10
81315;DHT22;72214;52.510;5.718;2023-12-04T09:45:12;1.60;78.10
81315;DHT22;72214;52.510;5.718;2023-12-04T09:47:42;1.60;78.10
81315;DHT22;72214;52.510;5.718;2023-12-04T09:50:12;1.70;78.00
81315;DHT22;72214;52.510;5.718;2023-12-04T09:52:43;1.70;78.00
81315;DHT22;72214;52.510;5.718;2023-12-04T09:55:13;1.70;78.00
81315;DHT22;72214;52.510;5.718;2023-12-04T09:57:44;1.70;78.00
81315;DHT22;72214;52.510;5.718;2023-12-04T10:00:16;1.70;78.00
81315;DHT22;72214;52.510;5.718;2023-12-04T10:02:45;1.70;78.00
81315;DHT22;72214;52.510;5.718;2023-12-04T10:05:14;1.70;78.00
81315;DHT22;72214;52.510;5.718;2023-12-04T10:07:46;1.70;78.00
81315;DHT22;72214;52.510;5.718;2023-12-04T10:10:15;1.70;78.00
81315;DHT22;72214;52.510;5.718;2023-12-04T10:12:45;1.70;77.90
81315;DHT22;72214;52.510;5.718;2023-12-04T10:15:14;1.70;77.90
81315;DHT22;72214;52.510;5.718;2023-12-04T10:17:44;1.80;77.90
81315;DHT22;72214;52.510;5.718;2023-12-04T10:20:14;1.80;77.90
81315;DHT22;72214;52.510;5.718;2023-12-04T10:22:57;1.80;77.90
81315;DHT22;72214;52.510;5.718;2023-12-04T10:25:28;1.80;77.80
81315;DHT22;72214;52.510;5.718;2023-12-04T10:28:08;1.80;77.90
81315;DHT22;72214;52.510;5.718;2023-12-04T10:30:37;1.80;77.80
81315;DHT22;72214;52.510;5.718;2023-12-04T10:33:08;1.80;77.80
81315;DHT22;72214;52.510;5.718;2023-12-04T10:35:37;1.80;77.80
81315;DHT22;72214;52.510;5.718;2023-12-04T10:38:09;1.80;77.80
81315;DHT22;72214;52.510;5.718;2023-12-04T10:40:40;1.80;77.80
81315;DHT22;72214;52.510;5.718;2023-12-04T10:43:15;1.80;77.80
81315;DHT22;72214;52.510;5.718;2023-12-04T10:45:47;1.80;77.70
81315;DHT22;72214;52.510;5.718;2023-12-04T10:48:18;1.80;77.80
81315;DHT22;72214;52.510;5.718;2023-12-04T10:50:48;1.90;77.70
81315;DHT22;72214;52.510;5.718;2023-12-04T10:53:21;1.90;77.70
81315;DHT22;72214;52.510;5.718;2023-12-04T10:55:52;1.90;77.70
81315;DHT22;72214;52.510;5.718;2023-12-04T10:58:26;1.90;77.60
81315;DHT22;72214;52.510;5.718;2023-12-04T11:00:56;1.90;77.70
81315;DHT22;72214;52.510;5.718;2023-12-04T11:03:31;1.90;77.60
81315;DHT22;72214;52.510;5.718;2023-12-04T11:06:02;2.00;77.50
81315;DHT22;72214;52.510;5.718;2023-12-04T11:08:39;2.00;77.50
81315;DHT22;72214;52.510;5.718;2023-12-04T11:11:13;2.00;77.50
81315;DHT22;72214;52.510;5.718;2023-12-04T11:13:48;2.00;77.50
81315;DHT22;72214;52.510;5.718;2023-12-04T11:16:22;2.00;77.50
81315;DHT22;72214;52.510;5.718;2023-12-04T11:18:56;2.00;77.50
81315;DHT22;72214;52.510;5.718;2023-12-04T11:21:31;2.00;77.50
81315;DHT22;72214;52.510;5.718;2023-12-04T11:24:04;2.00;77.40
81315;DHT22;72214;52.510;5.718;2023-12-04T11:26:34;2.00;77.40
81315;DHT22;72214;52.510;5.718;2023-12-04T11:29:04;2.00;77.40
81315;DHT22;72214;52.510;5.718;2023-12-04T11:31:35;2.00;77.30
81315;DHT22;72214;52.510;5.718;2023-12-04T11:34:04;2.00;77.40
81315;DHT22;72214;52.510;5.718;2023-12-04T11:36:34;2.00;77.30
81315;DHT22;72214;52.510;5.718;2023-12-04T11:39:09;2.00;77.40
81315;DHT22;72214;52.510;5.718;2023-12-04T11:41:38;2.00;77.30
81315;DHT22;72214;52.510;5.718;2023-12-04T11:44:12;2.00;77.40
81315;DHT22;72214;52.510;5.718;2023-12-04T11:46:55;2.00;77.30
81315;DHT22;72214;52.510;5.718;2023-12-04T11:49:29;2.00;77.30
81315;DHT22;72214;52.510;5.718;2023-12-04T11:51:56;2.00;77.30
81315;DHT22;72214;52.510;5.718;2023-12-04T11:54:28;2.00;77.30
81315;DHT22;72214;52.510;5.718;2023-12-04T11:57:19;2.10;77.30
81315;DHT22;72214;52.510;5.718;2023-12-04T11:59:50;2.10;77.20
81315;DHT22;72214;52.510;5.718;2023-12-04T12:02:20;2.10;77.20
81315;DHT22;72214;52.510;5.718;2023-12-04T12:04:49;2.10;77.10
81315;DHT22;72214;52.510;5.718;2023-12-04T12:07:18;2.10;77.20
81315;DHT22;72214;52.510;5.718;2023-12-04T12:09:50;2.10;77.10
81315;DHT22;72214;52.510;5.718;2023-12-04T12:12:19;2.10;77.10
81315;DHT22;72214;52.510;5.718;2023-12-04T12:14:49;2.20;77.10
81315;DHT22;72214;52.510;5.718;2023-12-04T12:17:18;2.20;77.10
81315;DHT22;72214;52.510;5.718;2023-12-04T12:19:47;2.20;77.10
81315;DHT22;72214;52.510;5.718;2023-12-04T12:22:17;2.20;77.00
81315;DHT22;72214;52.510;5.718;2023-12-04T12:24:46;2.20;77.00
81315;DHT22;72214;52.510;5.718;2023-12-04T12:27:18;2.20;77.00
81315;DHT22;72214;52.510;5.718;2023-12-04T12:29:48;2.20;77.00
81315;DHT22;72214;52.510;5.718;2023-12-04T12:32:17;2.20;76.90
81315;DHT22;72214;52.510;5.718;2023-12-04T12:34:46;2.30;76.90
81315;DHT22;72214;52.510;5.718;2023-12-04T12:37:16;2.30;76.90
81315;DHT22;72214;52.510;5.718;2023-12-04T12:39:45;2.30;76.90
81315;DHT22;72214;52.510;5.718;2023-12-04T12:42:24;2.30;76.90
81315;DHT22;72214;52.510;5.718;2023-12-04T12:44:54;2.30;76.90
81315;DHT22;72214;52.510;5.718;2023-12-04T12:47:24;2.30;76.90
81315;DHT22;72214;52.510;5.718;2023-12-04T12:49:53;2.30;76.90
81315;DHT22;72214;52.510;5.718;2023-12-04T12:52:23;2.30;76.90
81315;DHT22;72214;52.510;5.718;2023-12-04T12:54:52;2.30;76.90
81315;DHT22;72214;52.510;5.718;2023-12-04T12:57:24;2.30;76.90
81315;DHT22;72214;52.510;5.718;2023-12-04T12:59:53;2.20;76.90
81315;DHT22;72214;52.510;5.718;2023-12-04T13:02:22;2.20;76.90
81315;DHT22;72214;52.510;5.718;2023-12-04T13:04:51;2.30;76.90
81315;DHT22;72214;52.510;5.718;2023-12-04T13:07:20;2.30;76.90
81315;DHT22;72214;52.510;5.718;2023-12-04T13:09:50;2.30;76.80
81315;DHT22;72214;52.510;5.718;2023-12-04T13:12:19;2.30;76.80
81315;DHT22;72214;52.510;5.718;2023-12-04T13:14:51;2.30;76.80
81315;DHT22;72214;52.510;5.718;2023-12-04T13:17:20;2.30;76.80
81315;DHT22;72214;52.510;5.718;2023-12-04T13:19:49;2.30;76.80
81315;DHT22;72214;52.510;5.718;2023-12-04T13:22:18;2.40;76.80
81315;DHT22;72214;52.510;5.718;2023-12-04T13:24:47;2.40;76.60
81315;DHT22;72214;52.510;5.718;2023-12-04T13:27:16;2.40;76.60
81315;DHT22;72214;52.510;5.718;2023-12-04T13:29:46;2.40;76.60
81315;DHT22;72214;52.510;5.718;2023-12-04T13:32:19;2.40;76.70
81315;DHT22;72214;52.510;5.718;2023-12-04T13:34:48;2.40;76.70
81315;DHT22;72214;52.510;5.718;2023-12-04T13:37:17;2.40;76.60
81315;DHT22;72214;52.510;5.718;2023-12-04T13:39:47;2.40;76.70
81315;DHT22;72214;52.510;5.718;2023-12-04T13:42:23;2.40;76.60
81315;DHT22;72214;52.510;5.718;2023-12-04T13:45:09;2.40;76.60
81315;DHT22;72214;52.510;5.718;2023-12-04T13:47:41;2.40;76.60
81315;DHT22;72214;52.510;5.718;2023-12-04T13:50:10;2.40;76.50
81315;DHT22;72214;52.510;5.718;2023-12-04T13:52:39;2.40;76.50
81315;DHT22;72214;52.510;5.718;2023-12-04T13:55:09;2.40;76.50
81315;DHT22;72214;52.510;5.718;2023-12-04T13:57:46;2.40;76.50
81315;DHT22;72214;52.510;5.718;2023-12-04T14:00:36;2.40;76.50
81315;DHT22;72214;52.510;5.718;2023-12-04T14:03:07;2.50;76.40
81315;DHT22;72214;52.510;5.718;2023-12-04T14:05:37;2.50;76.40
81315;DHT22;72214;52.510;5.718;2023-12-04T14:08:06;2.50;76.40
81315;DHT22;72214;52.510;5.718;2023-12-04T14:10:37;2.50;76.40
81315;DHT22;72214;52.510;5.718;2023-12-04T14:13:06;2.50;76.40
81315;DHT22;72214;52.510;5.718;2023-12-04T14:15:35;2.60;76.40
81315;DHT22;72214;52.510;5.718;2023-12-04T14:18:08;2.60;76.30
81315;DHT22;72214;52.510;5.718;2023-12-04T14:20:38;2.60;76.20
81315;DHT22;72214;52.510;5.718;2023-12-04T14:23:07;2.50;76.30
81315;DHT22;72214;52.510;5.718;2023-12-04T14:25:36;2.50;76.40
81315;DHT22;72214;52.510;5.718;2023-12-04T14:28:05;2.50;76.30
81315;DHT22;72214;52.510;5.718;2023-12-04T14:30:34;2.50;76.40
81315;DHT22;72214;52.510;5.718;2023-12-04T14:33:03;2.50;76.30
81315;DHT22;72214;52.510;5.718;2023-12-04T14:35:35;2.50;76.40
81315;DHT22;72214;52.510;5.718;2023-12-04T14:38:05;2.50;76.40
81315;DHT22;72214;52.510;5.718;2023-12-04T14:40:34;2.50;76.40
81315;DHT22;72214;52.510;5.718;2023-12-04T14:43:03;2.50;76.40
81315;DHT22;72214;52.510;5.718;2023-12-04T14:45:35;2.50;76.40
81315;DHT22;72214;52.510;5.718;2023-12-04T14:48:05;2.50;76.40
81315;DHT22;72214;52.510;5.718;2023-12-04T14:50:37;2.50;76.30
81315;DHT22;72214;52.510;5.718;2023-12-04T14:53:06;2.40;76.40
81315;DHT22;72214;52.510;5.718;2023-12-04T14:55:42;2.40;76.40
81315;DHT22;72214;52.510;5.718;2023-12-04T14:58:30;2.40;76.40
81315;DHT22;72214;52.510;5.718;2023-12-04T15:01:17;2.40;76.40
81315;DHT22;72214;52.510;5.718;2023-12-04T15:04:01;2.40;76.40
81315;DHT22;72214;52.510;5.718;2023-12-04T15:06:45;2.40;76.40
81315;DHT22;72214;52.510;5.718;2023-12-04T15:09:43;2.40;76.30
81315;DHT22;72214;52.510;5.718;2023-12-04T15:12:30;2.40;76.40
81315;DHT22;72214;52.510;5.718;2023-12-04T15:15:17;2.40;76.40
81315;DHT22;72214;52.510;5.718;2023-12-04T15:18:00;2.40;76.30
81315;DHT22;72214;52.510;5.718;2023-12-04T15:20:41;2.40;76.20
81315;DHT22;72214;52.510;5.718;2023-12-04T15:23:14;2.30;76.30
81315;DHT22;72214;52.510;5.718;2023-12-04T15:25:44;2.30;76.40
81315;DHT22;72214;52.510;5.718;2023-12-04T15:28:11;2.30;76.40
81315;DHT22;72214;52.510;5.718;2023-12-04T15:30:40;2.30;76.40
81315;DHT22;72214;52.510;5.718;2023-12-04T15:33:07;2.30;76.40
81315;DHT22;72214;52.510;5.718;2023-12-04T15:35:36;2.30;76.40
81315;DHT22;72214;52.510;5.718;2023-12-04T15:38:03;2.30;76.40
81315;DHT22;72214;52.510;5.718;2023-12-04T15:40:35;2.20;76.40
81315;DHT22;72214;52.510;5.718;2023-12-04T15:43:02;2.20;76.40
81315;DHT22;72214;52.510;5.718;2023-12-04T15:45:31;2.20;76.50
81315;DHT22;72214;52.510;5.718;2023-12-04T15:47:57;2.20;76.50
81315;DHT22;72214;52.510;5.718;2023-12-04T15:50:27;2.10;76.50
81315;DHT22;72214;52.510;5.718;2023-12-04T15:52:53;2.20;76.50
81315;DHT22;72214;52.510;5.718;2023-12-04T15:55:22;2.10;76.50
81315;DHT22;72214;52.510;5.718;2023-12-04T15:57:55;2.10;76.50
81315;DHT22;72214;52.510;5.718;2023-12-04T16:00:25;2.10;76.50
81315;DHT22;72214;52.510;5.718;2023-12-04T16:02:52;2.10;76.50
81315;DHT22;72214;52.510;5.718;2023-12-04T16:05:21;2.10;76.40